Terminal Aerodrome Forecast
Issued by NWS

Current Version | Previous Version | Text Only | Print | Product List | Glossary On
Versions: 1 2 3 4 5 6 7 8 9 10 11 12 13 14 15 16 17 18 19 20 21 22 23 24
000
FTUS43 KDVN 111549 AAB
TAFCID
TAF AMD
KCID 111549Z 1116/1212 20006KT P6SM BKN150
     FM111630 29013G22KT P6SM BKN120
      TEMPO 1117/1120 -SHRA BKN030
     FM112200 32025G33KT P6SM OVC030
     FM120500 32018G25KT P6SM SCT030=

USA.gov is the U.S. government's official web portal to all federal, state and local government web resources and services.